sensor_id;sensor_type;location;lat;lon;timestamp;P1;durP1;ratioP1;P2;durP2;ratioP2
16973;SDS011;8603;46.944;7.412;2023-06-10T00:02:10;6.68;;;5.07;;
16973;SDS011;8603;46.944;7.412;2023-06-10T00:04:36;5.78;;;5.18;;
16973;SDS011;8603;46.944;7.412;2023-06-10T00:07:04;5.70;;;5.20;;
16973;SDS011;8603;46.944;7.412;2023-06-10T00:09:33;5.53;;;5.03;;
16973;SDS011;8603;46.944;7.412;2023-06-10T00:12:03;5.82;;;5.20;;
16973;SDS011;8603;46.944;7.412;2023-06-10T00:14:33;6.15;;;5.55;;
16973;SDS011;8603;46.944;7.412;2023-06-10T00:17:00;5.45;;;4.88;;
16973;SDS011;8603;46.944;7.412;2023-06-10T00:19:25;6.50;;;5.55;;
16973;SDS011;8603;46.944;7.412;2023-06-10T00:21:55;6.47;;;5.20;;
16973;SDS011;8603;46.944;7.412;2023-06-10T00:24:21;6.15;;;5.57;;
16973;SDS011;8603;46.944;7.412;2023-06-10T00:26:47;6.40;;;5.88;;
16973;SDS011;8603;46.944;7.412;2023-06-10T00:29:13;7.45;;;5.70;;
16973;SDS011;8603;46.944;7.412;2023-06-10T00:31:39;6.45;;;5.80;;
16973;SDS011;8603;46.944;7.412;2023-06-10T00:34:08;6.30;;;5.53;;
16973;SDS011;8603;46.944;7.412;2023-06-10T00:36:39;6.03;;;5.45;;
16973;SDS011;8603;46.944;7.412;2023-06-10T00:39:05;7.80;;;6.18;;
16973;SDS011;8603;46.944;7.412;2023-06-10T00:41:44;6.95;;;6.13;;
16973;SDS011;8603;46.944;7.412;2023-06-10T00:44:16;6.97;;;6.32;;
16973;SDS011;8603;46.944;7.412;2023-06-10T00:46:44;6.38;;;5.78;;
16973;SDS011;8603;46.944;7.412;2023-06-10T00:49:10;6.78;;;6.07;;
16973;SDS011;8603;46.944;7.412;2023-06-10T00:51:36;7.75;;;6.03;;
16973;SDS011;8603;46.944;7.412;2023-06-10T00:54:02;6.88;;;6.28;;
16973;SDS011;8603;46.944;7.412;2023-06-10T00:56:29;9.05;;;6.70;;
16973;SDS011;8603;46.944;7.412;2023-06-10T00:58:55;6.53;;;5.93;;
16973;SDS011;8603;46.944;7.412;2023-06-10T01:01:20;6.97;;;6.38;;
16973;SDS011;8603;46.944;7.412;2023-06-10T01:03:46;7.15;;;6.53;;
16973;SDS011;8603;46.944;7.412;2023-06-10T01:09:25;7.80;;;6.30;;
16973;SDS011;8603;46.944;7.412;2023-06-10T01:12:39;7.10;;;6.43;;
16973;SDS011;8603;46.944;7.412;2023-06-10T01:14:43;6.93;;;6.32;;
16973;SDS011;8603;46.944;7.412;2023-06-10T01:17:10;7.93;;;6.55;;
16973;SDS011;8603;46.944;7.412;2023-06-10T01:19:37;7.43;;;6.72;;
16973;SDS011;8603;46.944;7.412;2023-06-10T01:34:56;7.97;;;7.28;;
16973;SDS011;8603;46.944;7.412;2023-06-10T01:37:24;8.57;;;6.72;;
16973;SDS011;8603;46.944;7.412;2023-06-10T01:39:51;9.52;;;7.50;;
16973;SDS011;8603;46.944;7.412;2023-06-10T01:42:19;7.38;;;6.68;;
16973;SDS011;8603;46.944;7.412;2023-06-10T01:44:46;7.50;;;6.65;;
16973;SDS011;8603;46.944;7.412;2023-06-10T01:47:12;8.68;;;7.75;;
16973;SDS011;8603;46.944;7.412;2023-06-10T01:49:37;7.65;;;6.88;;
16973;SDS011;8603;46.944;7.412;2023-06-10T01:52:03;7.60;;;6.90;;
16973;SDS011;8603;46.944;7.412;2023-06-10T01:54:29;7.40;;;6.70;;
16973;SDS011;8603;46.944;7.412;2023-06-10T01:56:55;7.15;;;6.45;;
16973;SDS011;8603;46.944;7.412;2023-06-10T01:59:20;7.57;;;6.97;;
16973;SDS011;8603;46.944;7.412;2023-06-10T02:01:46;6.93;;;6.32;;
16973;SDS011;8603;46.944;7.412;2023-06-10T02:04:49;7.38;;;6.68;;
16973;SDS011;8603;46.944;7.412;2023-06-10T02:07:14;7.95;;;7.13;;
16973;SDS011;8603;46.944;7.412;2023-06-10T02:09:40;7.90;;;7.10;;
16973;SDS011;8603;46.944;7.412;2023-06-10T02:12:06;8.55;;;7.32;;
16973;SDS011;8603;46.944;7.412;2023-06-10T02:14:32;7.85;;;7.15;;
16973;SDS011;8603;46.944;7.412;2023-06-10T02:16:58;7.70;;;6.97;;
16973;SDS011;8603;46.944;7.412;2023-06-10T02:19:24;9.68;;;7.20;;
16973;SDS011;8603;46.944;7.412;2023-06-10T02:21:51;7.82;;;7.03;;
16973;SDS011;8603;46.944;7.412;2023-06-10T02:24:17;8.60;;;7.30;;
16973;SDS011;8603;46.944;7.412;2023-06-10T02:26:43;7.70;;;6.93;;
16973;SDS011;8603;46.944;7.412;2023-06-10T02:29:08;7.57;;;6.82;;
16973;SDS011;8603;46.944;7.412;2023-06-10T02:31:34;7.75;;;6.95;;
16973;SDS011;8603;46.944;7.412;2023-06-10T02:34:00;8.25;;;7.30;;
16973;SDS011;8603;46.944;7.412;2023-06-10T02:36:27;8.75;;;7.47;;
16973;SDS011;8603;46.944;7.412;2023-06-10T02:38:53;9.95;;;7.97;;
16973;SDS011;8603;46.944;7.412;2023-06-10T02:41:19;8.18;;;7.38;;
16973;SDS011;8603;46.944;7.412;2023-06-10T02:43:46;8.40;;;7.60;;
16973;SDS011;8603;46.944;7.412;2023-06-10T02:46:12;10.63;;;8.02;;
16973;SDS011;8603;46.944;7.412;2023-06-10T02:48:45;7.68;;;6.97;;
16973;SDS011;8603;46.944;7.412;2023-06-10T02:51:11;7.80;;;7.00;;
16973;SDS011;8603;46.944;7.412;2023-06-10T02:53:37;8.18;;;7.47;;
16973;SDS011;8603;46.944;7.412;2023-06-10T02:56:03;7.30;;;6.70;;
16973;SDS011;8603;46.944;7.412;2023-06-10T02:58:29;7.78;;;7.07;;
16973;SDS011;8603;46.944;7.412;2023-06-10T03:00:54;9.20;;;8.13;;
16973;SDS011;8603;46.944;7.412;2023-06-10T03:03:20;8.20;;;7.38;;
16973;SDS011;8603;46.944;7.412;2023-06-10T03:05:47;8.07;;;7.25;;
16973;SDS011;8603;46.944;7.412;2023-06-10T03:08:13;7.47;;;6.60;;
16973;SDS011;8603;46.944;7.412;2023-06-10T03:10:39;7.40;;;6.63;;
16973;SDS011;8603;46.944;7.412;2023-06-10T03:13:04;7.85;;;7.15;;
16973;SDS011;8603;46.944;7.412;2023-06-10T03:15:30;7.75;;;7.05;;
16973;SDS011;8603;46.944;7.412;2023-06-10T03:17:57;7.47;;;6.40;;
16973;SDS011;8603;46.944;7.412;2023-06-10T03:20:25;8.77;;;7.80;;
16973;SDS011;8603;46.944;7.412;2023-06-10T03:22:52;11.02;;;7.55;;
16973;SDS011;8603;46.944;7.412;2023-06-10T03:25:18;8.43;;;6.97;;
16973;SDS011;8603;46.944;7.412;2023-06-10T03:27:45;7.63;;;6.75;;
16973;SDS011;8603;46.944;7.412;2023-06-10T03:30:12;8.25;;;7.07;;
16973;SDS011;8603;46.944;7.412;2023-06-10T03:32:38;7.80;;;7.05;;
16973;SDS011;8603;46.944;7.412;2023-06-10T03:35:04;8.77;;;7.88;;
16973;SDS011;8603;46.944;7.412;2023-06-10T03:37:30;9.23;;;8.27;;
16973;SDS011;8603;46.944;7.412;2023-06-10T03:39:55;7.40;;;6.70;;
16973;SDS011;8603;46.944;7.412;2023-06-10T03:42:21;9.15;;;8.27;;
16973;SDS011;8603;46.944;7.412;2023-06-10T03:44:46;12.25;;;7.65;;
16973;SDS011;8603;46.944;7.412;2023-06-10T03:47:12;8.65;;;7.85;;
16973;SDS011;8603;46.944;7.412;2023-06-10T03:49:38;8.25;;;7.55;;
16973;SDS011;8603;46.944;7.412;2023-06-10T03:52:05;8.35;;;7.30;;
16973;SDS011;8603;46.944;7.412;2023-06-10T03:54:31;8.25;;;7.45;;
16973;SDS011;8603;46.944;7.412;2023-06-10T03:56:59;8.98;;;8.02;;
16973;SDS011;8603;46.944;7.412;2023-06-10T03:59:25;8.52;;;7.72;;
16973;SDS011;8603;46.944;7.412;2023-06-10T04:01:50;8.10;;;7.30;;
16973;SDS011;8603;46.944;7.412;2023-06-10T04:04:16;8.27;;;7.47;;
16973;SDS011;8603;46.944;7.412;2023-06-10T04:06:42;10.43;;;8.10;;
16973;SDS011;8603;46.944;7.412;2023-06-10T04:09:08;8.40;;;7.25;;
16973;SDS011;8603;46.944;7.412;2023-06-10T04:11:34;8.60;;;7.80;;
16973;SDS011;8603;46.944;7.412;2023-06-10T04:14:00;8.82;;;8.02;;
16973;SDS011;8603;46.944;7.412;2023-06-10T04:16:27;10.85;;;7.95;;
16973;SDS011;8603;46.944;7.412;2023-06-10T04:18:53;8.90;;;8.10;;
16973;SDS011;8603;46.944;7.412;2023-06-10T04:21:19;9.13;;;8.32;;
16973;SDS011;8603;46.944;7.412;2023-06-10T04:23:45;11.32;;;8.77;;
16973;SDS011;8603;46.944;7.412;2023-06-10T04:26:11;8.00;;;6.97;;
16973;SDS011;8603;46.944;7.412;2023-06-10T04:28:37;9.13;;;7.97;;
16973;SDS011;8603;46.944;7.412;2023-06-10T04:31:03;9.02;;;8.13;;
16973;SDS011;8603;46.944;7.412;2023-06-10T04:33:29;8.60;;;7.80;;
16973;SDS011;8603;46.944;7.412;2023-06-10T04:35:55;8.77;;;7.88;;
16973;SDS011;8603;46.944;7.412;2023-06-10T04:38:21;8.90;;;8.05;;
16973;SDS011;8603;46.944;7.412;2023-06-10T04:40:47;10.30;;;7.75;;
16973;SDS011;8603;46.944;7.412;2023-06-10T04:43:13;8.98;;;7.45;;
16973;SDS011;8603;46.944;7.412;2023-06-10T04:45:38;9.25;;;8.30;;
16973;SDS011;8603;46.944;7.412;2023-06-10T04:48:04;8.18;;;7.35;;
16973;SDS011;8603;46.944;7.412;2023-06-10T04:50:30;9.25;;;8.38;;
16973;SDS011;8603;46.944;7.412;2023-06-10T04:52:58;8.07;;;7.28;;
16973;SDS011;8603;46.944;7.412;2023-06-10T04:55:23;8.38;;;7.57;;
16973;SDS011;8603;46.944;7.412;2023-06-10T04:57:50;6.88;;;6.20;;
16973;SDS011;8603;46.944;7.412;2023-06-10T05:00:16;7.93;;;6.85;;
16973;SDS011;8603;46.944;7.412;2023-06-10T05:02:42;7.68;;;6.95;;
16973;SDS011;8603;46.944;7.412;2023-06-10T05:05:07;7.20;;;6.53;;
16973;SDS011;8603;46.944;7.412;2023-06-10T05:07:33;6.85;;;6.25;;
16973;SDS011;8603;46.944;7.412;2023-06-10T05:09:59;8.23;;;7.00;;
16973;SDS011;8603;46.944;7.412;2023-06-10T05:12:25;8.15;;;6.50;;
16973;SDS011;8603;46.944;7.412;2023-06-10T05:14:51;7.13;;;6.40;;
16973;SDS011;8603;46.944;7.412;2023-06-10T05:17:16;8.75;;;7.13;;
16973;SDS011;8603;46.944;7.412;2023-06-10T05:19:42;7.55;;;6.78;;
16973;SDS011;8603;46.944;7.412;2023-06-10T05:22:08;6.90;;;6.30;;
16973;SDS011;8603;46.944;7.412;2023-06-10T05:24:34;8.93;;;6.50;;
16973;SDS011;8603;46.944;7.412;2023-06-10T05:26:59;7.30;;;6.60;;
16973;SDS011;8603;46.944;7.412;2023-06-10T05:29:25;8.68;;;6.82;;
16973;SDS011;8603;46.944;7.412;2023-06-10T05:31:51;7.70;;;6.20;;
16973;SDS011;8603;46.944;7.412;2023-06-10T05:34:16;7.97;;;7.18;;
16973;SDS011;8603;46.944;7.412;2023-06-10T05:36:43;7.78;;;6.80;;
16973;SDS011;8603;46.944;7.412;2023-06-10T05:39:09;7.60;;;6.90;;
16973;SDS011;8603;46.944;7.412;2023-06-10T05:41:35;7.63;;;6.95;;
16973;SDS011;8603;46.944;7.412;2023-06-10T05:44:00;9.98;;;6.68;;
16973;SDS011;8603;46.944;7.412;2023-06-10T05:46:26;11.20;;;6.72;;
16973;SDS011;8603;46.944;7.412;2023-06-10T05:48:51;6.60;;;6.00;;
16973;SDS011;8603;46.944;7.412;2023-06-10T05:51:17;7.53;;;6.30;;
16973;SDS011;8603;46.944;7.412;2023-06-10T05:53:42;7.50;;;5.97;;
16973;SDS011;8603;46.944;7.412;2023-06-10T05:56:08;6.43;;;5.82;;
16973;SDS011;8603;46.944;7.412;2023-06-10T05:58:34;7.95;;;6.43;;
16973;SDS011;8603;46.944;7.412;2023-06-10T06:00:59;5.88;;;5.38;;
16973;SDS011;8603;46.944;7.412;2023-06-10T06:03:25;7.63;;;6.65;;
16973;SDS011;8603;46.944;7.412;2023-06-10T06:05:52;8.15;;;6.40;;
16973;SDS011;8603;46.944;7.412;2023-06-10T06:08:18;6.75;;;6.00;;
16973;SDS011;8603;46.944;7.412;2023-06-10T06:10:44;10.60;;;6.28;;
16973;SDS011;8603;46.944;7.412;2023-06-10T06:13:10;6.80;;;5.78;;
16973;SDS011;8603;46.944;7.412;2023-06-10T06:15:36;8.98;;;6.55;;
16973;SDS011;8603;46.944;7.412;2023-06-10T06:18:01;7.25;;;6.53;;
16973;SDS011;8603;46.944;7.412;2023-06-10T06:20:27;6.65;;;6.05;;
16973;SDS011;8603;46.944;7.412;2023-06-10T06:22:53;6.85;;;6.22;;
16973;SDS011;8603;46.944;7.412;2023-06-10T06:25:19;6.82;;;6.22;;
16973;SDS011;8603;46.944;7.412;2023-06-10T06:27:45;6.88;;;6.07;;
16973;SDS011;8603;46.944;7.412;2023-06-10T06:30:11;7.40;;;5.70;;
16973;SDS011;8603;46.944;7.412;2023-06-10T06:32:36;6.90;;;5.82;;
16973;SDS011;8603;46.944;7.412;2023-06-10T06:35:02;6.13;;;5.53;;
16973;SDS011;8603;46.944;7.412;2023-06-10T06:37:30;5.93;;;5.43;;
16973;SDS011;8603;46.944;7.412;2023-06-10T06:39:57;7.18;;;5.45;;
16973;SDS011;8603;46.944;7.412;2023-06-10T06:42:23;6.40;;;5.32;;
16973;SDS011;8603;46.944;7.412;2023-06-10T06:44:48;6.82;;;5.70;;
16973;SDS011;8603;46.944;7.412;2023-06-10T06:47:14;6.90;;;5.22;;
16973;SDS011;8603;46.944;7.412;2023-06-10T06:49:39;8.95;;;5.70;;
16973;SDS011;8603;46.944;7.412;2023-06-10T06:52:05;5.78;;;5.20;;
16973;SDS011;8603;46.944;7.412;2023-06-10T06:54:31;6.40;;;5.57;;
16973;SDS011;8603;46.944;7.412;2023-06-10T06:56:56;5.75;;;5.15;;
16973;SDS011;8603;46.944;7.412;2023-06-10T06:59:22;9.20;;;5.38;;
16973;SDS011;8603;46.944;7.412;2023-06-10T07:01:48;5.45;;;4.88;;
16973;SDS011;8603;46.944;7.412;2023-06-10T07:04:14;5.25;;;4.75;;
16973;SDS011;8603;46.944;7.412;2023-06-10T07:06:40;6.15;;;5.50;;
16973;SDS011;8603;46.944;7.412;2023-06-10T07:09:07;6.20;;;5.13;;
16973;SDS011;8603;46.944;7.412;2023-06-10T07:11:34;6.53;;;5.65;;
16973;SDS011;8603;46.944;7.412;2023-06-10T07:13:59;6.72;;;5.75;;
16973;SDS011;8603;46.944;7.412;2023-06-10T07:16:25;7.13;;;5.20;;
16973;SDS011;8603;46.944;7.412;2023-06-10T07:18:52;5.85;;;5.25;;
16973;SDS011;8603;46.944;7.412;2023-06-10T07:21:18;6.07;;;5.47;;
16973;SDS011;8603;46.944;7.412;2023-06-10T07:23:43;7.68;;;5.80;;
16973;SDS011;8603;46.944;7.412;2023-06-10T07:26:12;5.55;;;5.05;;
16973;SDS011;8603;46.944;7.412;2023-06-10T07:28:38;5.70;;;5.07;;
16973;SDS011;8603;46.944;7.412;2023-06-10T07:31:05;6.72;;;6.03;;
16973;SDS011;8603;46.944;7.412;2023-06-10T07:33:30;6.20;;;5.57;;
16973;SDS011;8603;46.944;7.412;2023-06-10T07:35:59;5.53;;;5.00;;
16973;SDS011;8603;46.944;7.412;2023-06-10T07:38:25;6.10;;;5.47;;
16973;SDS011;8603;46.944;7.412;2023-06-10T07:40:51;7.30;;;5.68;;
16973;SDS011;8603;46.944;7.412;2023-06-10T07:43:17;6.18;;;5.57;;
16973;SDS011;8603;46.944;7.412;2023-06-10T07:45:43;8.18;;;5.82;;
16973;SDS011;8603;46.944;7.412;2023-06-10T07:48:09;6.35;;;5.75;;
16973;SDS011;8603;46.944;7.412;2023-06-10T07:50:35;5.88;;;5.28;;
16973;SDS011;8603;46.944;7.412;2023-06-10T07:53:03;5.65;;;5.05;;
16973;SDS011;8603;46.944;7.412;2023-06-10T07:55:31;7.00;;;5.10;;
16973;SDS011;8603;46.944;7.412;2023-06-10T07:57:57;5.63;;;5.13;;
16973;SDS011;8603;46.944;7.412;2023-06-10T08:00:23;6.97;;;5.80;;
16973;SDS011;8603;46.944;7.412;2023-06-10T08:02:48;6.60;;;5.90;;
16973;SDS011;8603;46.944;7.412;2023-06-10T08:05:14;5.93;;;5.32;;
16973;SDS011;8603;46.944;7.412;2023-06-10T08:07:39;6.30;;;5.43;;
16973;SDS011;8603;46.944;7.412;2023-06-10T08:10:05;6.10;;;5.50;;
16973;SDS011;8603;46.944;7.412;2023-06-10T08:12:32;7.35;;;5.50;;
16973;SDS011;8603;46.944;7.412;2023-06-10T08:14:58;5.55;;;5.05;;
16973;SDS011;8603;46.944;7.412;2023-06-10T08:17:42;5.72;;;5.22;;
16973;SDS011;8603;46.944;7.412;2023-06-10T08:20:08;6.05;;;5.38;;
16973;SDS011;8603;46.944;7.412;2023-06-10T08:22:43;6.30;;;5.03;;
16973;SDS011;8603;46.944;7.412;2023-06-10T08:25:10;5.60;;;5.05;;
16973;SDS011;8603;46.944;7.412;2023-06-10T08:27:39;5.65;;;5.15;;
16973;SDS011;8603;46.944;7.412;2023-06-10T08:30:27;5.32;;;4.93;;
16973;SDS011;8603;46.944;7.412;2023-06-10T08:32:55;5.18;;;4.70;;
16973;SDS011;8603;46.944;7.412;2023-06-10T08:35:21;6.20;;;5.60;;
16973;SDS011;8603;46.944;7.412;2023-06-10T08:37:46;6.00;;;5.40;;
16973;SDS011;8603;46.944;7.412;2023-06-10T08:40:12;5.10;;;4.70;;
16973;SDS011;8603;46.944;7.412;2023-06-10T08:42:53;5.80;;;5.22;;
16973;SDS011;8603;46.944;7.412;2023-06-10T08:45:30;6.43;;;5.68;;
16973;SDS011;8603;46.944;7.412;2023-06-10T08:48:00;6.10;;;5.60;;
16973;SDS011;8603;46.944;7.412;2023-06-10T08:50:31;5.80;;;5.20;;
16973;SDS011;8603;46.944;7.412;2023-06-10T08:53:00;6.82;;;4.97;;
16973;SDS011;8603;46.944;7.412;2023-06-10T08:55:27;6.47;;;5.68;;
16973;SDS011;8603;46.944;7.412;2023-06-10T08:58:34;6.40;;;5.63;;
16973;SDS011;8603;46.944;7.412;2023-06-10T09:01:06;6.80;;;5.53;;
16973;SDS011;8603;46.944;7.412;2023-06-10T09:03:45;5.80;;;5.30;;
16973;SDS011;8603;46.944;7.412;2023-06-10T09:06:11;6.30;;;5.70;;
16973;SDS011;8603;46.944;7.412;2023-06-10T09:08:49;5.95;;;5.45;;
16973;SDS011;8603;46.944;7.412;2023-06-10T09:11:19;6.50;;;5.90;;
16973;SDS011;8603;46.944;7.412;2023-06-10T09:13:45;6.47;;;5.88;;
16973;SDS011;8603;46.944;7.412;2023-06-10T09:16:11;6.85;;;6.20;;
16973;SDS011;8603;46.944;7.412;2023-06-10T09:18:37;5.88;;;5.28;;
16973;SDS011;8603;46.944;7.412;2023-06-10T09:21:03;5.97;;;5.15;;
16973;SDS011;8603;46.944;7.412;2023-06-10T09:23:29;7.82;;;6.40;;
16973;SDS011;8603;46.944;7.412;2023-06-10T09:25:58;6.07;;;5.35;;
16973;SDS011;8603;46.944;7.412;2023-06-10T09:28:24;6.05;;;5.25;;
16973;SDS011;8603;46.944;7.412;2023-06-10T09:31:00;7.00;;;6.40;;
16973;SDS011;8603;46.944;7.412;2023-06-10T09:33:30;7.32;;;6.63;;
16973;SDS011;8603;46.944;7.412;2023-06-10T09:35:56;6.75;;;6.03;;
16973;SDS011;8603;46.944;7.412;2023-06-10T09:38:29;5.80;;;5.20;;
16973;SDS011;8603;46.944;7.412;2023-06-10T09:41:16;5.75;;;5.18;;
16973;SDS011;8603;46.944;7.412;2023-06-10T09:43:43;6.28;;;5.78;;
16973;SDS011;8603;46.944;7.412;2023-06-10T09:46:18;6.63;;;6.03;;
16973;SDS011;8603;46.944;7.412;2023-06-10T09:48:45;6.25;;;5.65;;
16973;SDS011;8603;46.944;7.412;2023-06-10T09:51:12;6.40;;;5.80;;
16973;SDS011;8603;46.944;7.412;2023-06-10T09:53:40;5.85;;;5.35;;
16973;SDS011;8603;46.944;7.412;2023-06-10T09:56:15;6.32;;;5.82;;
16973;SDS011;8603;46.944;7.412;2023-06-10T10:02:04;5.53;;;5.00;;
16973;SDS011;8603;46.944;7.412;2023-06-10T10:08:22;7.68;;;6.82;;
16973;SDS011;8603;46.944;7.412;2023-06-10T10:11:09;5.50;;;5.00;;
16973;SDS011;8603;46.944;7.412;2023-06-10T10:13:39;6.38;;;5.82;;
16973;SDS011;8603;46.944;7.412;2023-06-10T10:19:19;6.72;;;6.13;;
16973;SDS011;8603;46.944;7.412;2023-06-10T10:22:43;7.38;;;6.63;;
16973;SDS011;8603;46.944;7.412;2023-06-10T10:32:16;6.60;;;5.90;;
16973;SDS011;8603;46.944;7.412;2023-06-10T10:44:19;6.75;;;6.15;;
16973;SDS011;8603;46.944;7.412;2023-06-10T10:46:53;5.78;;;5.22;;
16973;SDS011;8603;46.944;7.412;2023-06-10T10:53:03;5.78;;;5.28;;
16973;SDS011;8603;46.944;7.412;2023-06-10T10:58:38;5.40;;;5.00;;
16973;SDS011;8603;46.944;7.412;2023-06-10T11:12:06;4.97;;;4.57;;
16973;SDS011;8603;46.944;7.412;2023-06-10T11:24:23;6.00;;;5.40;;
16973;SDS011;8603;46.944;7.412;2023-06-10T11:27:37;6.32;;;5.75;;
16973;SDS011;8603;46.944;7.412;2023-06-10T11:30:36;6.55;;;5.80;;
16973;SDS011;8603;46.944;7.412;2023-06-10T11:36:55;5.90;;;5.10;;
16973;SDS011;8603;46.944;7.412;2023-06-10T11:39:29;5.88;;;5.25;;
16973;SDS011;8603;46.944;7.412;2023-06-10T11:45:23;6.70;;;4.97;;
16973;SDS011;8603;46.944;7.412;2023-06-10T11:47:56;5.53;;;5.07;;
16973;SDS011;8603;46.944;7.412;2023-06-10T11:50:50;5.70;;;5.15;;
16973;SDS011;8603;46.944;7.412;2023-06-10T12:04:39;6.20;;;5.55;;
16973;SDS011;8603;46.944;7.412;2023-06-10T12:16:28;5.80;;;5.18;;
16973;SDS011;8603;46.944;7.412;2023-06-10T12:19:00;6.45;;;5.95;;
16973;SDS011;8603;46.944;7.412;2023-06-10T12:21:28;6.00;;;5.50;;
16973;SDS011;8603;46.944;7.412;2023-06-10T12:24:10;6.22;;;5.63;;
16973;SDS011;8603;46.944;7.412;2023-06-10T12:26:43;5.30;;;4.90;;
16973;SDS011;8603;46.944;7.412;2023-06-10T12:32:11;5.93;;;5.40;;
16973;SDS011;8603;46.944;7.412;2023-06-10T12:34:40;5.75;;;5.25;;
16973;SDS011;8603;46.944;7.412;2023-06-10T12:37:12;5.55;;;5.05;;
16973;SDS011;8603;46.944;7.412;2023-06-10T12:39:50;5.82;;;5.32;;
16973;SDS011;8603;46.944;7.412;2023-06-10T12:42:24;5.97;;;5.47;;
16973;SDS011;8603;46.944;7.412;2023-06-10T12:44:53;6.93;;;5.65;;
16973;SDS011;8603;46.944;7.412;2023-06-10T12:50:38;5.80;;;5.30;;
16973;SDS011;8603;46.944;7.412;2023-06-10T12:53:29;5.85;;;5.28;;
16973;SDS011;8603;46.944;7.412;2023-06-10T12:56:15;5.78;;;5.20;;
16973;SDS011;8603;46.944;7.412;2023-06-10T12:58:54;5.55;;;4.97;;
16973;SDS011;8603;46.944;7.412;2023-06-10T13:01:23;5.50;;;5.00;;
16973;SDS011;8603;46.944;7.412;2023-06-10T13:03:54;5.80;;;5.30;;
16973;SDS011;8603;46.944;7.412;2023-06-10T13:06:20;6.53;;;5.05;;
16973;SDS011;8603;46.944;7.412;2023-06-10T13:11:44;5.40;;;4.90;;
16973;SDS011;8603;46.944;7.412;2023-06-10T13:14:23;5.63;;;5.20;;
16973;SDS011;8603;46.944;7.412;2023-06-10T13:17:47;5.57;;;5.10;;
16973;SDS011;8603;46.944;7.412;2023-06-10T13:20:34;5.50;;;5.00;;
16973;SDS011;8603;46.944;7.412;2023-06-10T13:23:27;5.72;;;5.22;;
16973;SDS011;8603;46.944;7.412;2023-06-10T13:25:53;6.00;;;5.50;;
16973;SDS011;8603;46.944;7.412;2023-06-10T13:32:10;5.30;;;4.90;;
16973;SDS011;8603;46.944;7.412;2023-06-10T15:42:11;5.32;;;4.82;;
16973;SDS011;8603;46.944;7.412;2023-06-10T15:44:46;5.20;;;4.70;;
16973;SDS011;8603;46.944;7.412;2023-06-10T15:54:07;5.63;;;5.05;;
16973;SDS011;8603;46.944;7.412;2023-06-10T15:56:38;5.18;;;4.68;;
16973;SDS011;8603;46.944;7.412;2023-06-10T15:59:07;5.60;;;4.90;;
16973;SDS011;8603;46.944;7.412;2023-06-10T16:02:17;5.30;;;4.90;;
16973;SDS011;8603;46.944;7.412;2023-06-10T16:04:43;5.55;;;4.63;;
16973;SDS011;8603;46.944;7.412;2023-06-10T16:07:11;5.55;;;5.03;;
16973;SDS011;8603;46.944;7.412;2023-06-10T16:09:39;8.45;;;4.70;;
16973;SDS011;8603;46.944;7.412;2023-06-10T16:12:06;6.03;;;4.95;;
16973;SDS011;8603;46.944;7.412;2023-06-10T16:14:35;5.57;;;4.47;;
16973;SDS011;8603;46.944;7.412;2023-06-10T16:17:00;6.32;;;4.80;;
16973;SDS011;8603;46.944;7.412;2023-06-10T16:19:26;5.40;;;5.00;;
16973;SDS011;8603;46.944;7.412;2023-06-10T16:21:52;5.32;;;4.82;;
16973;SDS011;8603;46.944;7.412;2023-06-10T16:24:18;4.80;;;4.40;;
16973;SDS011;8603;46.944;7.412;2023-06-10T16:26:43;5.00;;;4.60;;
16973;SDS011;8603;46.944;7.412;2023-06-10T16:29:09;5.80;;;5.28;;
16973;SDS011;8603;46.944;7.412;2023-06-10T16:31:35;6.50;;;4.88;;
16973;SDS011;8603;46.944;7.412;2023-06-10T16:34:00;5.15;;;4.75;;
16973;SDS011;8603;46.944;7.412;2023-06-10T16:36:27;4.85;;;4.45;;
16973;SDS011;8603;46.944;7.412;2023-06-10T16:38:53;5.55;;;4.95;;
16973;SDS011;8603;46.944;7.412;2023-06-10T16:41:22;5.82;;;4.80;;
16973;SDS011;8603;46.944;7.412;2023-06-10T16:43:49;5.30;;;4.80;;
16973;SDS011;8603;46.944;7.412;2023-06-10T16:46:39;4.95;;;4.47;;
16973;SDS011;8603;46.944;7.412;2023-06-10T16:49:12;5.65;;;5.15;;
16973;SDS011;8603;46.944;7.412;2023-06-10T16:51:41;5.50;;;5.00;;
16973;SDS011;8603;46.944;7.412;2023-06-10T16:54:42;5.63;;;5.13;;
16973;SDS011;8603;46.944;7.412;2023-06-10T16:57:19;5.03;;;4.63;;
16973;SDS011;8603;46.944;7.412;2023-06-10T16:59:49;5.20;;;4.80;;
16973;SDS011;8603;46.944;7.412;2023-06-10T17:05:32;5.57;;;4.78;;
16973;SDS011;8603;46.944;7.412;2023-06-10T17:08:19;6.18;;;5.57;;
16973;SDS011;8603;46.944;7.412;2023-06-10T17:11:03;5.50;;;5.00;;
16973;SDS011;8603;46.944;7.412;2023-06-10T17:13:32;5.50;;;5.00;;
16973;SDS011;8603;46.944;7.412;2023-06-10T17:16:12;5.88;;;5.38;;
16973;SDS011;8603;46.944;7.412;2023-06-10T17:18:38;5.68;;;5.15;;
16973;SDS011;8603;46.944;7.412;2023-06-10T17:21:04;5.75;;;5.25;;
16973;SDS011;8603;46.944;7.412;2023-06-10T17:23:30;5.35;;;4.95;;
16973;SDS011;8603;46.944;7.412;2023-06-10T17:26:16;6.50;;;5.68;;
16973;SDS011;8603;46.944;7.412;2023-06-10T17:28:42;5.50;;;4.97;;
16973;SDS011;8603;46.944;7.412;2023-06-10T17:31:45;6.75;;;4.70;;
16973;SDS011;8603;46.944;7.412;2023-06-10T17:35:19;5.57;;;5.07;;
16973;SDS011;8603;46.944;7.412;2023-06-10T17:37:56;5.90;;;5.40;;
16973;SDS011;8603;46.944;7.412;2023-06-10T17:40:21;5.72;;;5.22;;
16973;SDS011;8603;46.944;7.412;2023-06-10T17:42:52;5.45;;;4.88;;
16973;SDS011;8603;46.944;7.412;2023-06-10T17:45:20;5.50;;;5.10;;
16973;SDS011;8603;46.944;7.412;2023-06-10T17:47:48;6.25;;;5.72;;
16973;SDS011;8603;46.944;7.412;2023-06-10T17:50:21;5.55;;;5.00;;
16973;SDS011;8603;46.944;7.412;2023-06-10T17:52:49;5.40;;;4.90;;
16973;SDS011;8603;46.944;7.412;2023-06-10T17:55:18;6.43;;;5.93;;
16973;SDS011;8603;46.944;7.412;2023-06-10T17:57:55;6.75;;;6.07;;
16973;SDS011;8603;46.944;7.412;2023-06-10T18:00:21;7.75;;;7.05;;
16973;SDS011;8603;46.944;7.412;2023-06-10T18:02:48;11.82;;;10.65;;
16973;SDS011;8603;46.944;7.412;2023-06-10T18:05:20;16.42;;;14.68;;
16973;SDS011;8603;46.944;7.412;2023-06-10T18:08:21;8.88;;;7.97;;
16973;SDS011;8603;46.944;7.412;2023-06-10T18:10:48;12.95;;;11.05;;
16973;SDS011;8603;46.944;7.412;2023-06-10T18:13:45;5.97;;;5.38;;
16973;SDS011;8603;46.944;7.412;2023-06-10T18:16:20;13.88;;;12.35;;
16973;SDS011;8603;46.944;7.412;2023-06-10T18:18:45;20.58;;;17.75;;
16973;SDS011;8603;46.944;7.412;2023-06-10T18:21:12;14.85;;;11.68;;
16973;SDS011;8603;46.944;7.412;2023-06-10T18:23:39;12.18;;;10.88;;
16973;SDS011;8603;46.944;7.412;2023-06-10T18:26:25;6.47;;;5.25;;
16973;SDS011;8603;46.944;7.412;2023-06-10T18:28:51;5.85;;;5.35;;
16973;SDS011;8603;46.944;7.412;2023-06-10T18:31:17;6.78;;;5.82;;
16973;SDS011;8603;46.944;7.412;2023-06-10T18:33:48;4.93;;;4.53;;
16973;SDS011;8603;46.944;7.412;2023-06-10T18:36:14;9.45;;;7.60;;
16973;SDS011;8603;46.944;7.412;2023-06-10T18:38:40;10.52;;;7.40;;
16973;SDS011;8603;46.944;7.412;2023-06-10T18:41:06;8.13;;;6.97;;
16973;SDS011;8603;46.944;7.412;2023-06-10T18:43:34;38.67;;;24.95;;
16973;SDS011;8603;46.944;7.412;2023-06-10T18:46:02;27.90;;;18.35;;
16973;SDS011;8603;46.944;7.412;2023-06-10T18:48:28;12.80;;;10.68;;
16973;SDS011;8603;46.944;7.412;2023-06-10T18:50:53;7.65;;;6.07;;
16973;SDS011;8603;46.944;7.412;2023-06-10T18:53:19;5.88;;;5.38;;
16973;SDS011;8603;46.944;7.412;2023-06-10T18:55:56;5.55;;;5.05;;
16973;SDS011;8603;46.944;7.412;2023-06-10T18:59:01;6.18;;;5.47;;
16973;SDS011;8603;46.944;7.412;2023-06-10T19:05:56;6.25;;;5.10;;
16973;SDS011;8603;46.944;7.412;2023-06-10T19:09:04;6.22;;;5.63;;
16973;SDS011;8603;46.944;7.412;2023-06-10T19:11:30;6.10;;;5.50;;
16973;SDS011;8603;46.944;7.412;2023-06-10T19:13:56;6.82;;;6.13;;
16973;SDS011;8603;46.944;7.412;2023-06-10T19:16:33;6.72;;;5.97;;
16973;SDS011;8603;46.944;7.412;2023-06-10T19:19:06;6.80;;;6.07;;
16973;SDS011;8603;46.944;7.412;2023-06-10T19:21:42;6.28;;;5.68;;
16973;SDS011;8603;46.944;7.412;2023-06-10T19:24:32;5.75;;;5.22;;
16973;SDS011;8603;46.944;7.412;2023-06-10T19:27:08;6.40;;;5.80;;
16973;SDS011;8603;46.944;7.412;2023-06-10T19:29:49;6.25;;;5.55;;
16973;SDS011;8603;46.944;7.412;2023-06-10T19:35:52;6.80;;;6.13;;